Time;durP1;ratioP1;P1;durP2;ratioP2;P2;SDS_P1;SDS_P2;PMS_P1;PMS_P2;Temp;Humidity;BMP_temperature;BMP_pressure;BME280_temperature;BME280_humidity;BME280_pressure;Samples;Min_cycle;Max_cycle;Signal;HPM_P1;HPM_P2
2021/08/12 00:01:30;;;;;;;9.95;2.17;;;;;;;26.54;45.77;100675.56;4424977;32;20432;-68
2021/08/12 00:03:56;;;;;;;8.20;2.58;;;;;;;26.44;46.03;100683.09;4422348;32;20081;-68
2021/08/12 00:06:22;;;;;;;5.90;2.40;;;;;;;26.57;45.76;100688.13;4429267;32;20063;-68
2021/08/12 00:08:47;;;;;;;7.12;2.42;;;;;;;26.43;46.21;100686.53;4426960;32;20093;-68
2021/08/12 00:11:13;;;;;;;8.05;2.22;;;;;;;26.34;46.37;100689.81;4427284;32;20052;-68
2021/08/12 00:13:38;;;;;;;6.03;2.30;;;;;;;26.11;46.90;100677.84;4422404;32;20064;-68
2021/08/12 00:16:05;;;;;;;4.28;2.03;;;;;;;26.17;46.75;100689.31;4424762;32;20111;-68
2021/08/12 00:18:31;;;;;;;3.85;1.95;;;;;;;26.24;46.77;100688.69;4421594;32;20102;-68
2021/08/12 00:20:57;;;;;;;3.58;1.95;;;;;;;26.37;46.55;100689.50;4429815;32;20056;-68
2021/08/12 00:23:22;;;;;;;4.25;2.47;;;;;;;26.22;46.83;100677.69;4423083;32;20339;-68
2021/08/12 00:25:48;;;;;;;3.22;2.00;;;;;;;26.27;46.72;100685.50;4422090;32;20033;-68
2021/08/12 00:28:14;;;;;;;7.55;2.17;;;;;;;26.19;47.00;100687.44;4427110;32;20044;-68
2021/08/12 00:30:40;;;;;;;4.28;2.40;;;;;;;26.43;46.42;100693.09;4419736;32;20029;-68
2021/08/12 00:33:06;;;;;;;5.35;2.20;;;;;;;26.45;46.38;100698.31;4424639;32;20091;-68
2021/08/12 00:35:32;;;;;;;4.93;2.10;;;;;;;26.38;46.42;100696.06;4425486;32;20096;-68
2021/08/12 00:37:58;;;;;;;3.10;1.90;;;;;;;26.43;46.00;100690.19;4424722;32;20045;-68
2021/08/12 00:40:25;;;;;;;3.92;1.98;;;;;;;26.24;46.27;100685.78;4408584;32;20132;-68
2021/08/12 00:42:51;;;;;;;4.10;2.10;;;;;;;26.34;46.18;100684.06;4426215;32;20338;-68
2021/08/12 00:45:18;;;;;;;3.62;2.20;;;;;;;26.29;45.85;100684.94;4424549;32;20133;-68
2021/08/12 00:47:44;;;;;;;4.47;2.12;;;;;;;26.22;45.57;100682.66;4424697;32;20069;-68
2021/08/12 00:50:10;;;;;;;4.25;1.95;;;;;;;26.16;45.51;100691.44;4423397;32;20070;-68
2021/08/12 00:52:37;;;;;;;5.97;1.90;;;;;;;26.23;45.34;100698.69;4422827;32;20217;-68
2021/08/12 00:55:04;;;;;;;3.70;2.25;;;;;;;25.98;45.65;100694.34;4424297;32;20028;-68
2021/08/12 00:57:31;;;;;;;19.17;3.05;;;;;;;26.12;45.16;100685.19;4425792;32;20104;-68
2021/08/12 00:59:56;;;;;;;5.22;2.20;;;;;;;25.85;45.89;100692.13;4430124;32;20089;-68
2021/08/12 01:02:22;;;;;;;16.77;3.33;;;;;;;25.54;45.97;100687.06;4411333;32;20720;-68
2021/08/12 01:04:48;;;;;;;5.87;2.20;;;;;;;25.50;45.54;100685.81;4422210;32;20037;-68
2021/08/12 01:15:25;;;;;;;3.08;2.10;;;;;;;26.01;44.41;100693.25;3985016;32;15025492;-69
2021/08/12 01:18:02;;;;;;;3.70;2.03;;;;;;;26.01;44.41;100693.25;4436334;32;20110;-69
2021/08/12 01:20:52;;;;;;;6.15;2.00;;;;;;;25.44;45.21;100690.87;4436843;32;20073;-69
2021/08/12 01:23:21;;;;;;;10.65;1.90;;;;;;;25.22;45.42;100709.19;4435137;32;20034;-69
2021/08/12 01:25:51;;;;;;;3.80;1.95;;;;;;;24.90;46.25;100709.00;4436349;32;20025;-69
2021/08/12 01:28:23;;;;;;;2.83;2.15;;;;;;;24.94;46.54;100706.59;4435706;32;20073;-69
2021/08/12 01:30:57;;;;;;;3.10;1.90;;;;;;;24.85;46.71;100714.81;4439427;32;20445;-69
2021/08/12 01:33:35;;;;;;;5.70;1.85;;;;;;;24.75;47.01;100708.63;4438787;32;20470;-69
2021/08/12 01:36:03;;;;;;;4.62;2.20;;;;;;;24.97;46.51;100711.28;4436862;32;20069;-69
2021/08/12 01:38:30;;;;;;;5.50;2.10;;;;;;;24.92;46.47;100705.56;4435260;32;20034;-69
2021/08/12 01:40:58;;;;;;;4.50;2.08;;;;;;;24.98;46.21;100703.41;4437873;32;20034;-69
2021/08/12 01:43:24;;;;;;;3.55;1.70;;;;;;;24.87;46.42;100712.16;4437036;32;20501;-69
2021/08/12 01:45:53;;;;;;;5.45;2.05;;;;;;;24.71;46.39;100707.34;4435869;32;20466;-69
2021/08/12 01:48:22;;;;;;;5.40;2.10;;;;;;;24.99;45.99;100716.50;4439667;32;20081;-69
2021/08/12 01:50:50;;;;;;;4.97;2.42;;;;;;;24.92;46.23;100719.97;4435141;32;20057;-69
2021/08/12 01:53:18;;;;;;;11.00;2.47;;;;;;;24.78;46.66;100706.75;4435919;32;20069;-69
2021/08/12 01:55:44;;;;;;;7.87;2.33;;;;;;;24.57;46.84;100709.28;4434869;32;20030;-69
2021/08/12 01:58:12;;;;;;;5.35;2.60;;;;;;;24.47;47.24;100696.56;4434560;32;20594;-69
2021/08/12 02:00:38;;;;;;;7.32;3.03;;;;;;;24.58;47.38;100684.94;4434172;32;20431;-69
2021/08/12 02:03:06;;;;;;;3.35;2.30;;;;;;;24.35;47.85;100694.28;4434543;32;20427;-69
2021/08/12 02:05:33;;;;;;;6.28;2.70;;;;;;;24.20;48.28;100685.28;4435092;32;20029;-69
2021/08/12 02:07:59;;;;;;;5.78;2.90;;;;;;;24.22;48.23;100694.13;4434362;32;20064;-69
2021/08/12 02:10:25;;;;;;;5.35;2.97;;;;;;;24.15;48.19;100686.88;4433361;32;20101;-69
2021/08/12 02:12:51;;;;;;;5.70;2.92;;;;;;;24.08;48.17;100695.31;4436439;32;20073;-69
2021/08/12 02:15:16;;;;;;;5.47;2.67;;;;;;;23.99;48.39;100687.00;4435221;32;20346;-69
2021/08/12 02:17:43;;;;;;;6.55;2.75;;;;;;;24.02;48.33;100691.69;4434107;32;21169;-69
2021/08/12 02:20:11;;;;;;;7.15;2.87;;;;;;;24.01;48.13;100695.84;4436503;32;20219;-69
2021/08/12 02:22:43;;;;;;;6.28;2.70;;;;;;;24.16;47.80;100694.19;4435079;32;20044;-69
2021/08/12 02:25:16;;;;;;;13.57;3.08;;;;;;;23.84;48.26;100678.69;4431867;32;20042;-69
2021/08/12 02:27:44;;;;;;;10.50;2.40;;;;;;;23.80;48.03;100686.81;4425172;32;20048;-69
2021/08/12 02:30:12;;;;;;;7.40;2.53;;;;;;;23.93;47.23;100684.13;4424210;32;20517;-69
2021/08/12 02:32:39;;;;;;;7.47;2.72;;;;;;;23.88;47.13;100687.81;4427326;32;20033;-69
2021/08/12 02:35:08;;;;;;;4.43;2.33;;;;;;;23.82;47.22;100689.94;4422878;32;20052;-69
2021/08/12 02:37:36;;;;;;;12.70;3.08;;;;;;;23.96;46.81;100683.06;4427166;32;20581;-69
2021/08/12 02:40:04;;;;;;;10.60;2.87;;;;;;;23.91;46.53;100686.75;4422040;32;20035;-69
2021/08/12 02:42:30;;;;;;;5.87;2.28;;;;;;;23.93;46.66;100689.09;4425699;32;20041;-68
2021/08/12 02:44:56;;;;;;;8.70;2.67;;;;;;;23.70;46.76;100690.53;4424992;32;20030;-69
2021/08/12 02:47:23;;;;;;;7.07;2.47;;;;;;;23.81;46.67;100694.16;4422855;32;20069;-69
2021/08/12 02:49:54;;;;;;;5.87;2.60;;;;;;;23.72;46.81;100682.97;4421653;32;20479;-69
2021/08/12 02:52:20;;;;;;;8.18;2.58;;;;;;;23.64;46.86;100673.31;4422894;32;20033;-69
2021/08/12 02:54:48;;;;;;;9.05;2.50;;;;;;;23.51;46.86;100678.88;4420490;32;20046;-69
2021/08/12 02:57:14;;;;;;;4.85;2.17;;;;;;;23.79;46.41;100691.00;4421690;32;20034;-69
2021/08/12 02:59:43;;;;;;;8.10;2.72;;;;;;;23.61;46.53;100694.50;4424570;32;20261;-69
2021/08/12 03:02:10;;;;;;;8.15;2.87;;;;;;;23.58;46.57;100681.19;4423822;32;20117;-69
2021/08/12 03:04:36;;;;;;;6.25;2.42;;;;;;;23.35;46.75;100677.63;4427447;32;20037;-69
2021/08/12 03:07:04;;;;;;;11.25;2.10;;;;;;;23.19;46.53;100684.22;4425330;32;20030;-69
2021/08/12 03:09:31;;;;;;;7.05;2.42;;;;;;;23.34;46.21;100692.53;4422463;32;20030;-69
2021/08/12 03:11:59;;;;;;;8.75;2.40;;;;;;;23.26;46.26;100688.66;4425200;32;20060;-69
2021/08/12 03:14:30;;;;;;;4.85;2.45;;;;;;;23.23;46.27;100690.47;4423414;32;20438;-69
2021/08/12 03:16:57;;;;;;;6.00;2.10;;;;;;;23.21;46.07;100680.81;4419216;32;20410;-69
2021/08/12 03:19:23;;;;;;;8.57;2.58;;;;;;;23.10;46.23;100689.47;4425872;32;20065;-69
2021/08/12 03:22:07;;;;;;;9.20;2.40;;;;;;;23.06;45.99;100688.94;4423540;32;20117;-69
2021/08/12 03:24:36;;;;;;;6.10;2.72;;;;;;;23.14;46.05;100684.22;4426017;32;20062;-69
2021/08/12 03:27:02;;;;;;;9.55;3.03;;;;;;;23.08;45.95;100692.06;4418846;32;20022;-69
2021/08/12 03:29:28;;;;;;;14.18;3.45;;;;;;;22.62;46.43;100691.91;4422763;32;20065;-69
2021/08/12 03:31:54;;;;;;;10.50;2.92;;;;;;;22.57;46.60;100701.28;4419795;32;20524;-69
2021/08/12 03:34:20;;;;;;;13.90;3.28;;;;;;;22.61;46.37;100690.34;4422434;32;20057;-69
2021/08/12 03:36:45;;;;;;;8.27;2.33;;;;;;;22.58;46.30;100697.13;4425620;32;20037;-69
2021/08/12 03:39:11;;;;;;;13.60;2.55;;;;;;;;;;4421664;32;20060;-69
2021/08/12 03:41:38;;;;;;;12.30;2.67;;;;;;;22.46;46.35;100701.28;4424003;32;20047;-69
2021/08/12 03:44:04;;;;;;;14.07;2.62;;;;;;;22.37;46.54;100693.69;4423217;32;20156;-69
2021/08/12 03:46:30;;;;;;;9.20;2.42;;;;;;;22.22;46.70;100692.41;4423727;32;20077;-69
2021/08/12 03:48:56;;;;;;;10.45;2.80;;;;;;;22.38;46.37;100689.56;4422799;32;20034;-69
2021/08/12 03:51:23;;;;;;;11.05;2.78;;;;;;;22.38;46.47;100683.03;4424708;32;20128;-69
2021/08/12 03:53:48;;;;;;;8.95;2.20;;;;;;;22.28;46.41;100685.38;4421753;32;20038;-69
2021/08/12 03:56:14;;;;;;;10.88;2.80;;;;;;;22.41;46.05;100685.63;4420647;32;20122;-69
2021/08/12 03:58:40;;;;;;;13.02;2.47;;;;;;;22.30;46.26;100682.75;4426265;32;20311;-69
2021/08/12 04:01:06;;;;;;;16.95;2.85;;;;;;;22.11;46.45;100681.72;4420698;32;20055;-69
2021/08/12 04:03:33;;;;;;;8.60;2.35;;;;;;;22.30;46.37;100691.37;4424594;32;20091;-69
2021/08/12 04:05:59;;;;;;;9.18;2.70;;;;;;;22.25;46.31;100686.44;4421973;32;20045;-69
2021/08/12 04:08:24;;;;;;;13.23;3.15;;;;;;;22.27;46.34;100685.91;4426854;32;20492;-69
2021/08/12 04:10:51;;;;;;;12.95;2.47;;;;;;;22.27;46.25;100685.91;4423523;32;20053;-69
2021/08/12 04:13:16;;;;;;;9.70;2.45;;;;;;;22.08;46.55;100693.44;4423705;32;20066;-69
2021/08/12 04:15:42;;;;;;;8.75;2.20;;;;;;;22.04;46.84;100684.31;4423458;32;20094;-69
2021/08/12 04:18:08;;;;;;;15.70;2.65;;;;;;;22.05;46.77;100683.00;4422702;32;20504;-69
2021/08/12 04:20:34;;;;;;;9.15;2.28;;;;;;;21.83;47.13;100678.03;4422750;32;20030;-68
2021/08/12 04:22:59;;;;;;;11.40;3.12;;;;;;;21.63;47.64;100678.22;4418913;32;20073;-68
2021/08/12 04:25:25;;;;;;;21.37;4.82;;;;;;;21.70;47.54;100677.72;4423983;32;20391;-68
2021/08/12 04:27:51;;;;;;;8.73;3.03;;;;;;;21.52;47.85;100681.03;4425911;32;20038;-68
2021/08/12 04:30:17;;;;;;;11.77;2.53;;;;;;;21.53;47.85;100691.19;4425731;32;20046;-68
2021/08/12 04:32:43;;;;;;;11.68;2.90;;;;;;;21.59;47.78;100687.06;4423214;32;20066;-68
2021/08/12 04:35:09;;;;;;;20.65;3.30;;;;;;;21.76;47.29;100689.22;4423362;32;20434;-68
2021/08/12 04:37:37;;;;;;;11.32;3.40;;;;;;;21.74;47.26;100686.88;4422835;32;20087;-68
2021/08/12 04:40:04;;;;;;;13.10;3.20;;;;;;;21.68;47.54;100686.81;4424213;32;20076;-68
2021/08/12 04:42:30;;;;;;;18.73;3.72;;;;;;;21.48;47.97;100681.28;4425147;32;20065;-68
2021/08/12 04:44:56;;;;;;;15.13;4.65;;;;;;;21.55;47.69;100677.94;4423250;32;20048;-68
2021/08/12 04:47:22;;;;;;;15.05;3.37;;;;;;;21.66;47.39;100686.56;4423853;32;20042;-68
2021/08/12 04:49:48;;;;;;;9.88;3.03;;;;;;;21.55;47.56;100692.25;4419528;32;20193;-68
2021/08/12 04:52:13;;;;;;;15.77;3.55;;;;;;;21.50;47.77;100695.88;4422347;32;20097;-68
2021/08/12 04:54:39;;;;;;;14.38;3.65;;;;;;;21.54;47.56;100693.53;4425269;32;20079;-68
2021/08/12 04:57:05;;;;;;;18.58;11.15;;;;;;;21.40;48.01;100694.53;4423508;32;20510;-68
2021/08/12 04:59:31;;;;;;;14.02;4.20;;;;;;;21.38;47.93;100696.34;4424806;32;20068;-68
2021/08/12 05:01:57;;;;;;;14.13;4.00;;;;;;;21.24;48.05;100703.06;4424531;32;20034;-68
2021/08/12 05:04:22;;;;;;;13.00;3.65;;;;;;;21.44;47.83;100697.13;4423618;32;20407;-68
2021/08/12 05:06:48;;;;;;;13.20;4.20;;;;;;;21.33;47.93;100700.75;4424979;32;20152;-68
2021/08/12 05:09:14;;;;;;;13.93;4.43;;;;;;;21.35;47.97;100712.47;4420819;32;20902;-68
2021/08/12 05:11:40;;;;;;;14.68;4.55;;;;;;;21.42;47.79;100711.22;4421089;32;20183;-68
2021/08/12 05:14:06;;;;;;;19.95;5.90;;;;;;;21.62;47.39;100714.66;4420097;32;20060;-68
2021/08/12 05:16:32;;;;;;;11.60;3.87;;;;;;;21.32;47.94;100709.84;4421889;32;20033;-68
2021/08/12 05:18:58;;;;;;;19.58;4.50;;;;;;;21.57;47.30;100715.41;4422344;32;20041;-68
2021/08/12 05:21:23;;;;;;;19.87;5.10;;;;;;;21.68;47.12;100715.47;4417743;32;20134;-68
2021/08/12 05:23:49;;;;;;;21.50;5.32;;;;;;;21.50;47.61;100709.41;4422672;32;20057;-68
2021/08/12 05:26:15;;;;;;;13.18;4.32;;;;;;;21.61;47.38;100713.09;4423969;32;20057;-68
2021/08/12 05:28:40;;;;;;;16.33;5.25;;;;;;;21.66;47.21;100698.00;4420454;32;20084;-68
2021/08/12 05:31:06;;;;;;;18.87;5.87;;;;;;;21.62;47.33;100703.22;4422628;32;20034;-68
2021/08/12 05:33:34;;;;;;;13.73;4.93;;;;;;;21.81;47.06;100703.53;4419923;32;20033;-68
2021/08/12 05:36:01;;;;;;;15.85;5.30;;;;;;;21.78;47.04;100715.28;4424708;32;20072;-68
2021/08/12 05:38:26;;;;;;;20.40;4.85;;;;;;;22.12;46.55;100711.94;4417985;32;20065;-68
2021/08/12 05:40:52;;;;;;;21.67;4.70;;;;;;;22.08;46.50;100719.22;4423570;32;20045;-68
2021/08/12 05:43:18;;;;;;;17.92;5.15;;;;;;;22.33;45.99;100723.97;4423289;32;20084;-68
2021/08/12 05:45:43;;;;;;;19.20;5.43;;;;;;;22.26;46.17;100727.31;4422230;32;20034;-68
2021/08/12 05:48:09;;;;;;;14.95;5.18;;;;;;;22.35;45.70;100730.72;4419997;32;20081;-68
2021/08/12 05:50:35;;;;;;;17.52;5.45;;;;;;;22.25;46.13;100735.16;4421565;32;20101;-68
2021/08/12 05:53:00;;;;;;;14.60;4.55;;;;;;;22.44;45.63;100741.16;4424259;32;20077;-68
2021/08/12 05:55:26;;;;;;;13.05;4.22;;;;;;;22.48;45.57;100738.81;4424112;32;20041;-68
2021/08/12 05:57:52;;;;;;;19.77;4.87;;;;;;;22.54;45.63;100740.41;4422842;32;20124;-68
2021/08/12 06:00:18;;;;;;;13.35;4.82;;;;;;;22.62;45.23;100740.69;4418654;32;20122;-68
2021/08/12 06:02:43;;;;;;;15.15;4.60;;;;;;;22.67;45.28;100737.03;4425640;32;20025;-68
2021/08/12 06:05:09;;;;;;;12.88;4.70;;;;;;;22.65;45.09;100742.50;4427166;32;20060;-69
2021/08/12 06:07:37;;;;;;;17.17;4.85;;;;;;;22.61;45.47;100742.00;4426574;32;20061;-68
2021/08/12 06:10:04;;;;;;;19.75;5.00;;;;;;;22.40;45.93;100735.69;4421415;32;20130;-68
2021/08/12 06:12:29;;;;;;;15.10;4.82;;;;;;;22.32;46.49;100742.44;4427831;32;20136;-68
2021/08/12 06:14:55;;;;;;;17.73;3.97;;;;;;;22.59;45.65;100738.84;4426025;32;20098;-68
2021/08/12 06:17:21;;;;;;;11.02;3.87;;;;;;;22.48;45.95;100736.72;4427301;32;20418;-68
2021/08/12 06:19:46;;;;;;;16.67;4.00;;;;;;;22.52;45.59;100737.28;4423086;32;20469;-68
2021/08/12 06:22:12;;;;;;;15.70;4.30;;;;;;;22.81;45.29;100728.16;4425169;32;20522;-68
2021/08/12 06:24:38;;;;;;;15.30;4.18;;;;;;;22.63;45.30;100743.03;4422952;32;20102;-68
2021/08/12 06:27:04;;;;;;;12.37;4.20;;;;;;;22.89;45.06;100734.12;4423112;32;20037;-68
2021/08/12 06:29:29;;;;;;;23.35;4.95;;;;;;;22.91;45.02;100737.25;4424628;32;20030;-68
2021/08/12 06:31:55;;;;;;;21.55;3.80;;;;;;;22.74;45.39;100725.03;4421789;32;20157;-68
2021/08/12 06:34:21;;;;;;;20.35;4.65;;;;;;;22.83;45.00;100731.25;4426558;32;20073;-68
2021/08/12 06:36:46;;;;;;;12.57;4.50;;;;;;;22.77;45.34;100733.34;4425517;32;20394;-68
2021/08/12 06:39:12;;;;;;;17.90;4.32;;;;;;;22.73;45.42;100743.56;4426466;32;20030;-68
2021/08/12 06:41:37;;;;;;;8.07;4.03;;;;;;;22.92;45.20;100739.59;4424178;32;20083;-68
2021/08/12 06:44:03;;;;;;;14.98;4.03;;;;;;;22.60;45.83;100732.59;4424506;32;20474;-68
2021/08/12 06:46:29;;;;;;;15.50;4.15;;;;;;;22.57;46.08;100727.91;4423740;32;20034;-68
2021/08/12 06:48:56;;;;;;;15.50;4.30;;;;;;;22.31;46.55;100724.50;4423246;32;20038;-68
2021/08/12 06:51:21;;;;;;;14.98;4.65;;;;;;;22.30;46.69;100733.59;4426141;32;20119;-68
2021/08/12 06:53:48;;;;;;;14.70;4.37;;;;;;;22.45;46.32;100723.44;4425206;32;20021;-68
2021/08/12 06:56:14;;;;;;;17.75;4.53;;;;;;;22.38;46.43;100729.69;4423075;32;20358;-68
2021/08/12 06:58:39;;;;;;;18.08;4.68;;;;;;;22.51;46.21;100726.31;4427549;32;20152;-68
2021/08/12 07:01:05;;;;;;;18.52;4.10;;;;;;;22.62;46.08;100734.94;4425684;32;20385;-68
2021/08/12 07:03:30;;;;;;;17.80;4.53;;;;;;;22.62;46.04;100732.88;4425533;32;20088;-68
2021/08/12 07:05:56;;;;;;;18.58;4.53;;;;;;;22.81;45.54;100733.09;4422768;32;20136;-68
2021/08/12 07:08:22;;;;;;;12.68;4.40;;;;;;;22.66;45.89;100723.97;4425203;32;20541;-68
2021/08/12 07:10:48;;;;;;;16.30;4.00;;;;;;;22.66;45.83;100726.84;4421583;32;20042;-68
2021/08/12 07:13:14;;;;;;;12.48;4.55;;;;;;;22.68;45.72;100722.16;4423930;32;20062;-69
2021/08/12 07:15:39;;;;;;;16.92;4.37;;;;;;;22.74;45.83;100730.75;4428383;32;20090;-69
2021/08/12 07:18:05;;;;;;;12.48;4.90;;;;;;;22.38;46.81;100729.69;4420420;32;20052;-69
2021/08/12 07:20:35;;;;;;;10.90;4.25;;;;;;;22.98;45.58;100725.25;4420244;32;20079;-69
2021/08/12 07:23:01;;;;;;;15.93;4.82;;;;;;;23.41;44.65;100724.34;4425862;32;20073;-69
2021/08/12 07:25:27;;;;;;;11.35;3.97;;;;;;;23.37;44.63;100720.19;4424842;32;20097;-69
2021/08/12 07:27:53;;;;;;;8.90;3.50;;;;;;;23.47;44.09;100716.50;4422337;32;20412;-69
2021/08/12 07:30:19;;;;;;;12.05;3.47;;;;;;;23.60;43.98;100709.41;4422902;32;20075;-69
2021/08/12 07:32:45;;;;;;;19.45;3.83;;;;;;;23.75;43.55;100706.97;4423760;32;20033;-69
2021/08/12 07:35:11;;;;;;;14.57;3.47;;;;;;;23.90;43.10;100702.41;4422656;32;20193;-69
2021/08/12 07:37:37;;;;;;;10.73;3.90;;;;;;;24.10;42.83;100692.66;4417894;32;20026;-69
2021/08/12 07:40:04;;;;;;;10.02;3.17;;;;;;;24.13;42.19;100701.00;4425993;32;20022;-69
2021/08/12 07:42:30;;;;;;;10.18;4.00;;;;;;;24.48;41.99;100695.22;4423598;32;20053;-69
2021/08/12 07:45:00;;;;;;;10.57;3.40;;;;;;;24.15;42.67;100700.47;4426814;32;20101;-69
2021/08/12 07:47:26;;;;;;;15.25;3.05;;;;;;;24.32;42.20;100706.88;4421767;32;20071;-69
2021/08/12 07:49:52;;;;;;;15.88;4.65;;;;;;;24.32;42.37;100710.53;4426087;32;20026;-69
2021/08/12 07:52:18;;;;;;;11.60;3.40;;;;;;;24.30;42.41;100707.41;4424220;32;20071;-69
2021/08/12 07:54:46;;;;;;;11.93;2.65;;;;;;;24.69;41.71;100707.87;4422581;32;20974;-69
2021/08/12 07:57:12;;;;;;;10.20;2.83;;;;;;;24.91;41.08;100707.66;4424705;32;20080;-69
2021/08/12 07:59:37;;;;;;;12.15;3.72;;;;;;;24.77;41.42;100711.75;4424865;32;20034;-69
2021/08/12 08:02:03;;;;;;;8.18;2.78;;;;;;;24.63;41.58;100704.25;4420561;32;20030;-68
2021/08/12 08:04:29;;;;;;;8.50;3.15;;;;;;;24.77;41.39;100700.22;4425114;32;20182;-68
2021/08/12 08:06:55;;;;;;;9.82;2.80;;;;;;;24.72;41.60;100701.06;4425447;32;20041;-68
2021/08/12 08:09:21;;;;;;;10.85;3.20;;;;;;;24.88;41.21;100708.75;4422799;32;20464;-69
2021/08/12 08:11:46;;;;;;;12.15;3.40;;;;;;;24.86;41.45;100713.50;4423425;32;20368;-68
2021/08/12 08:14:12;;;;;;;12.05;2.97;;;;;;;25.19;40.91;100710.25;4419315;32;20037;-68
2021/08/12 08:16:38;;;;;;;10.73;3.17;;;;;;;25.43;40.33;100715.25;4423464;32;20051;-68
2021/08/12 08:19:03;;;;;;;14.82;2.72;;;;;;;25.32;40.72;100711.16;4422222;32;20105;-68
2021/08/12 08:21:29;;;;;;;12.07;3.22;;;;;;;25.18;40.31;100723.88;4423874;32;20072;-68
2021/08/12 08:23:55;;;;;;;14.77;3.58;;;;;;;25.51;39.98;100719.06;4424634;32;20067;-68
2021/08/12 08:26:21;;;;;;;14.20;2.85;;;;;;;25.90;39.46;100720.12;4422897;32;20061;-68
2021/08/12 08:28:47;;;;;;;9.98;2.67;;;;;;;25.86;39.36;100719.63;4420968;32;20096;-68
2021/08/12 08:31:13;;;;;;;13.25;2.75;;;;;;;26.04;39.08;100718.09;4419012;32;20289;-68
2021/08/12 08:33:39;;;;;;;12.30;3.12;;;;;;;26.26;38.73;100720.66;4424136;32;20101;-68
2021/08/12 08:36:05;;;;;;;18.58;2.75;;;;;;;26.25;38.48;100719.09;4423486;32;20327;-69
2021/08/12 08:38:32;;;;;;;14.18;3.25;;;;;;;26.33;38.37;100723.69;4424346;32;20420;-69
2021/08/12 08:41:00;;;;;;;12.13;2.70;;;;;;;26.49;38.14;100721.84;4419525;32;20018;-68
2021/08/12 08:43:27;;;;;;;11.48;2.90;;;;;;;26.53;38.03;100719.41;4425234;32;20033;-69
2021/08/12 08:45:55;;;;;;;19.98;3.58;;;;;;;27.09;37.18;100717.88;4421490;32;20057;-69
2021/08/12 08:48:23;;;;;;;11.43;2.80;;;;;;;27.40;36.83;100733.62;4422386;32;20072;-68
2021/08/12 08:50:49;;;;;;;14.10;2.92;;;;;;;26.70;37.29;100731.50;4421473;32;20052;-68
2021/08/12 08:53:17;;;;;;;11.10;2.65;;;;;;;26.43;37.90;100721.94;4422667;32;20101;-68
2021/08/12 08:55:43;;;;;;;10.93;2.42;;;;;;;26.67;37.76;100718.94;4421679;32;20126;-68
2021/08/12 08:58:11;;;;;;;11.68;2.60;;;;;;;26.58;37.50;100724.31;4420650;32;20041;-68
2021/08/12 09:00:37;;;;;;;10.32;2.62;;;;;;;27.13;36.44;100720.47;4421332;32;20126;-68
2021/08/12 09:03:03;;;;;;;13.13;2.75;;;;;;;27.42;36.12;100733.81;4420658;32;20029;-68
2021/08/12 09:05:28;;;;;;;12.05;3.20;;;;;;;27.41;35.88;100732.28;4421169;32;20535;-68
2021/08/12 09:07:54;;;;;;;13.95;3.20;;;;;;;27.32;35.94;100740.59;4421953;32;20417;-68
2021/08/12 09:10:20;;;;;;;13.95;2.72;;;;;;;27.59;35.52;100730.59;4419481;32;20061;-68
2021/08/12 09:12:47;;;;;;;11.20;2.40;;;;;;;27.58;35.46;100738.47;4419868;32;20041;-68
2021/08/12 09:15:20;;;;;;;10.52;1.98;;;;;;;28.08;34.96;100752.69;4422545;32;20471;-68
2021/08/12 09:17:48;;;;;;;9.13;2.40;;;;;;;28.03;35.04;100738.31;4422038;32;20034;-68
2021/08/12 09:20:20;;;;;;;13.88;2.35;;;;;;;27.69;34.87;100735.37;4422325;32;20041;-68
2021/08/12 09:33:25;;;;;;;11.60;2.15;;;;;;;28.86;32.27;100729.19;3982707;32;15027817;-68
2021/08/12 09:35:51;;;;;;;15.63;2.65;;;;;;;28.80;31.40;100733.56;4439427;32;20418;-68
2021/08/12 09:38:17;;;;;;;9.38;2.00;;;;;;;29.16;30.79;100728.66;4437913;32;20042;-68
2021/08/12 09:40:50;;;;;;;14.23;1.87;;;;;;;29.87;29.38;100719.22;4436443;32;20025;-68
2021/08/12 09:43:17;;;;;;;11.45;1.92;;;;;;;29.61;28.65;100734.75;4439940;32;20021;-68
2021/08/12 09:45:42;;;;;;;10.95;1.67;;;;;;;29.51;28.94;100727.91;4435472;32;20030;-68
2021/08/12 09:50:57;;;;;;;8.65;1.60;;;;;;;29.93;27.72;100723.53;3980547;32;15025779;-69
2021/08/12 09:53:23;;;;;;;11.23;2.45;;;;;;;29.93;27.72;100723.53;4433434;32;20084;-68
2021/08/12 09:55:50;;;;;;;9.25;1.45;;;;;;;30.24;27.40;100730.22;4433447;32;20406;-69
2021/08/12 09:58:18;;;;;;;12.90;2.17;;;;;;;29.78;27.88;100725.56;4433616;32;20116;-69
2021/08/12 10:00:46;;;;;;;9.02;2.15;;;;;;;30.06;27.94;100734.97;4430818;32;20365;-68
2021/08/12 10:03:32;;;;;;;8.95;1.95;;;;;;;30.60;27.49;100722.94;4432654;32;20112;-68
2021/08/12 10:06:00;;;;;;;11.70;2.10;;;;;;;31.26;27.32;100727.81;4432051;32;20114;-68
2021/08/12 10:13:59;;;;;;;10.45;1.40;;;;;;;32.07;25.66;100736.91;3982449;32;15023882;-68
2021/08/12 10:16:30;;;;;;;6.62;1.58;;;;;;;32.07;25.66;100736.91;4438197;32;20037;-68
2021/08/12 10:18:58;;;;;;;9.50;2.12;;;;;;;31.17;26.42;100745.84;4438890;32;20428;-68
2021/08/12 10:21:25;;;;;;;7.40;1.80;;;;;;;31.16;26.43;100735.56;4438201;32;20403;-68
2021/08/12 10:23:56;;;;;;;7.47;2.00;;;;;;;30.54;26.06;100736.88;4439347;32;20419;-69
2021/08/12 10:26:27;;;;;;;5.85;1.60;;;;;;;30.26;25.96;100719.59;4437792;32;20060;-68
2021/08/12 10:28:56;;;;;;;7.70;1.62;;;;;;;30.82;25.23;100724.34;4438584;32;20388;-68
2021/08/12 10:31:24;;;;;;;9.00;1.80;;;;;;;30.43;26.17;100721.97;4440163;32;20115;-68
2021/08/12 10:33:51;;;;;;;4.15;1.62;;;;;;;30.79;26.08;100723.38;4440273;32;20106;-68
2021/08/12 10:36:18;;;;;;;9.10;1.80;;;;;;;31.48;25.11;100721.97;4439393;32;21172;-69
2021/08/12 10:38:44;;;;;;;6.18;1.77;;;;;;;31.67;24.94;100712.78;4436869;32;20037;-68
2021/08/12 10:41:11;;;;;;;7.55;1.48;;;;;;;31.50;23.91;100722.16;4438059;32;20081;-68
2021/08/12 10:43:38;;;;;;;5.35;1.60;;;;;;;31.06;24.83;100709.22;4428408;32;20046;-68
2021/08/12 10:46:04;;;;;;;7.10;1.48;;;;;;;31.29;24.44;100704.16;4440835;32;20070;-68
2021/08/12 10:48:32;;;;;;;5.37;1.58;;;;;;;31.47;24.22;100702.94;4436226;32;20593;-68
2021/08/12 10:51:11;;;;;;;10.90;1.70;;;;;;;30.94;24.14;100728.41;4433064;32;20037;-68
2021/08/12 10:53:40;;;;;;;7.75;1.55;;;;;;;31.55;23.02;100712.44;4440582;32;20037;-68
2021/08/12 10:58:47;;;;;;;6.28;1.50;;;;;;;31.68;23.70;100702.69;3982651;32;15100465;-69
2021/08/12 11:01:26;;;;;;;9.27;1.40;;;;;;;31.68;23.70;100702.69;4435298;32;20055;-68
2021/08/12 11:03:53;;;;;;;14.52;1.70;;;;;;;31.58;23.05;100699.62;4436776;32;20507;-68
2021/08/12 11:06:33;;;;;;;10.57;2.05;;;;;;;31.05;23.11;100713.50;4435695;32;20451;-68
2021/08/12 11:09:01;;;;;;;6.37;1.50;;;;;;;31.67;22.81;100704.06;4432878;32;20463;-68
2021/08/12 11:14:08;;;;;;;4.28;1.45;;;;;;;32.94;20.41;100708.37;3982636;32;15027190;-68
2021/08/12 11:19:35;;;;;;;5.90;1.85;;;;;;;32.83;20.60;100700.09;3984319;32;15023350;-67
2021/08/12 11:22:01;;;;;;;;;;;;;;;32.70;22.14;100717.12;4436712;32;20033;-68
2021/08/12 11:27:05;;;;;;;7.62;1.62;;;;;;;33.34;21.27;100702.38;3981921;32;15023074;-69
2021/08/12 11:29:32;;;;;;;8.20;1.30;;;;;;;33.34;21.27;100702.38;4431418;32;20076;-69
2021/08/12 11:34:56;;;;;;;8.77;1.50;;;;;;;33.65;21.09;100689.75;3981840;32;15022625;-69
2021/08/12 11:40:02;;;;;;;6.43;1.75;;;;;;;32.99;21.37;100706.59;3982127;32;15026149;-69
2021/08/12 11:42:44;;;;;;;7.22;1.48;;;;;;;32.99;21.37;100706.59;4435085;32;20067;-68
2021/08/12 11:45:12;;;;;;;4.62;1.77;;;;;;;33.53;20.99;100693.81;4435101;32;20033;-68
2021/08/12 11:47:40;;;;;;;3.00;1.35;;;;;;;33.33;21.08;100703.72;4431106;32;20093;-68
2021/08/12 11:50:08;;;;;;;6.07;1.75;;;;;;;33.27;21.41;100697.38;4433875;32;20597;-68
2021/08/12 11:52:37;;;;;;;7.87;1.50;;;;;;;33.19;21.41;100690.84;4430910;32;20060;-68
2021/08/12 11:55:10;;;;;;;5.95;1.40;;;;;;;32.93;21.71;100689.34;4430122;32;20183;-68
2021/08/12 11:57:56;;;;;;;6.75;1.60;;;;;;;32.91;21.89;100682.59;4433499;32;20068;-68
2021/08/12 12:05:37;;;;;;;6.60;1.58;;;;;;;33.73;20.95;100683.84;3985909;32;15022733;-69
2021/08/12 12:10:41;;;;;;;8.68;1.98;;;;;;;33.84;20.93;100684.06;3972645;32;15727578;-68